Time;durP1;ratioP1;P1;durP2;ratioP2;P2;SDS_P1;SDS_P2;PMS_P1;PMS_P2;Temp;Humidity;BMP_temperature;BMP_pressure;BME280_temperature;BME280_humidity;BME280_pressure;Samples;Min_cycle;Max_cycle;Signal;HPM_P1;HPM_P2
2022/12/11 00:01:51;;;;;;;47.10;16.98;;;;;;;;;;5041707;28;20992;-74
2022/12/11 00:04:17;;;;;;;70.80;19.80;;;;;;;;;;5057961;28;20048;-74
2022/12/11 00:06:43;;;;;;;68.15;23.83;;;;;;;;;;5056459;28;20040;-74
2022/12/11 00:09:10;;;;;;;62.08;21.23;;;;;;;;;;5058060;28;20063;-74
2022/12/11 00:11:37;;;;;;;89.57;24.80;;;;;;;;;;5039031;28;20063;-74
2022/12/11 00:14:03;;;;;;;45.40;15.82;;;;;;;;;;5051597;28;21551;-74
2022/12/11 00:16:29;;;;;;;58.95;20.83;;;;;;;;;;5040513;28;20054;-74
2022/12/11 00:18:55;;;;;;;70.57;22.27;;;;;;;;;;5058789;28;20063;-74
2022/12/11 00:21:21;;;;;;;73.97;20.63;;;;;;;;;;5060282;28;20037;-74
2022/12/11 00:23:47;;;;;;;82.40;24.05;;;;;;;;;;5041052;28;20563;-74
2022/12/11 00:26:14;;;;;;;67.35;21.48;;;;;;;;;;5061330;28;20044;-74
2022/12/11 00:28:40;;;;;;;102.45;25.98;;;;;;;;;;5025477;28;20084;-74
2022/12/11 00:31:07;;;;;;;90.65;26.48;;;;;;;;;;5059669;28;20044;-74
2022/12/11 00:33:34;;;;;;;73.70;22.95;;;;;;;;;;5041819;28;20056;-74
2022/12/11 00:36:00;;;;;;;67.80;18.75;;;;;;;;;;5061567;28;20166;-74
2022/12/11 00:38:26;;;;;;;79.28;24.63;;;;;;;;;;5040444;28;20426;-74
2022/12/11 00:40:52;;;;;;;88.53;21.98;;;;;;;;;;5041336;28;21955;-74
2022/12/11 00:43:18;;;;;;;92.30;24.02;;;;;;;;;;5026624;28;20730;-74
2022/12/11 00:45:46;;;;;;;98.97;27.48;;;;;;;;;;5027541;28;20059;-74
2022/12/11 00:48:13;;;;;;;70.35;23.73;;;;;;;;;;5032753;28;20142;-73
2022/12/11 00:50:39;;;;;;;78.97;26.45;;;;;;;;;;5041874;28;20147;-74
2022/12/11 00:53:05;;;;;;;85.28;24.23;;;;;;;;;;5020623;28;20136;-74
2022/12/11 00:55:35;;;;;;;61.25;22.42;;;;;;;;;;5039506;28;20045;-73
2022/12/11 00:58:01;;;;;;;76.03;22.83;;;;;;;;;;5022755;28;20048;-73
2022/12/11 01:00:27;;;;;;;82.95;22.70;;;;;;;;;;5029613;28;20060;-73
2022/12/11 01:02:53;;;;;;;80.50;25.73;;;;;;;;;;5020114;28;21954;-73
2022/12/11 01:05:20;;;;;;;67.35;22.85;;;;;;;;;;5019645;28;20132;-74
2022/12/11 01:07:46;;;;;;;102.72;27.85;;;;;;;;;;5004193;28;20048;-74
2022/12/11 01:10:25;;;;;;;75.63;24.98;;;;;;;;;;5010087;28;20060;-74
2022/12/11 01:12:54;;;;;;;66.95;22.70;;;;;;;;;;5041987;28;20053;-74
2022/12/11 01:15:21;;;;;;;65.88;19.75;;;;;;;;;;5031333;28;20098;-74
2022/12/11 01:17:48;;;;;;;72.32;21.85;;;;;;;;;;5028944;28;20085;-74
2022/12/11 01:20:15;;;;;;;74.88;25.25;;;;;;;;;;5016566;28;20171;-74
2022/12/11 01:22:41;;;;;;;84.75;23.55;;;;;;;;;;5042158;28;21876;-74
2022/12/11 01:25:08;;;;;;;103.47;29.27;;;;;;;;;;5025112;28;20049;-73
2022/12/11 01:27:35;;;;;;;87.05;27.17;;;;;;;;;;5027046;28;20556;-73
2022/12/11 01:30:01;;;;;;;95.95;27.90;;;;;;;;;;5044380;28;20171;-73
2022/12/11 01:32:27;;;;;;;85.22;25.13;;;;;;;;;;5025207;28;20049;-73
2022/12/11 01:34:54;;;;;;;89.85;27.85;;;;;;;;;;5029358;28;20159;-74
2022/12/11 01:37:20;;;;;;;82.05;24.23;;;;;;;;;;5042481;28;20044;-73
2022/12/11 01:39:46;;;;;;;96.55;26.45;;;;;;;;;;5040980;28;20044;-74
2022/12/11 01:42:19;;;;;;;84.15;27.02;;;;;;;;;;5041393;28;20059;-73
2022/12/11 01:44:45;;;;;;;93.75;28.00;;;;;;;;;;5023619;28;20052;-73
2022/12/11 01:47:11;;;;;;;102.57;28.67;;;;;;;;;;5024567;28;20059;-74
2022/12/11 01:49:38;;;;;;;99.00;26.58;;;;;;;;;;5021997;28;20052;-74
2022/12/11 01:52:08;;;;;;;105.55;27.38;;;;;;;;;;5020608;28;20049;-74
2022/12/11 01:54:35;;;;;;;98.70;27.23;;;;;;;;;;5039008;28;20049;-74
2022/12/11 01:57:03;;;;;;;86.75;23.65;;;;;;;;;;5036237;28;20657;-74
2022/12/11 01:59:32;;;;;;;85.47;25.30;;;;;;;;;;5040238;28;20063;-74
2022/12/11 02:02:01;;;;;;;74.10;23.08;;;;;;;;;;5042435;28;20055;-73
2022/12/11 02:04:28;;;;;;;69.95;23.35;;;;;;;;;;5043675;28;20053;-74
2022/12/11 02:06:54;;;;;;;77.40;22.85;;;;;;;;;;5058348;28;21002;-73
2022/12/11 02:09:31;;;;;;;72.65;22.67;;;;;;;;;;5057684;28;20063;-74
2022/12/11 02:12:15;;;;;;;84.05;24.60;;;;;;;;;;5060013;28;20443;-74
2022/12/11 02:14:52;;;;;;;71.07;23.65;;;;;;;;;;5056604;28;20127;-74
2022/12/11 02:17:25;;;;;;;73.72;21.45;;;;;;;;;;5028130;28;20072;-74
2022/12/11 02:20:07;;;;;;;75.03;23.70;;;;;;;;;;5026659;28;20124;-74
2022/12/11 02:22:57;;;;;;;74.53;24.00;;;;;;;;;;5056696;28;20045;-74
2022/12/11 02:25:35;;;;;;;71.95;22.05;;;;;;;;;;5009888;28;20052;-73
2022/12/11 02:28:07;;;;;;;70.30;23.33;;;;;;;;;;5053487;28;20102;-74
2022/12/11 02:30:36;;;;;;;74.60;22.23;;;;;;;;;;5042347;28;20047;-73
2022/12/11 02:33:02;;;;;;;69.53;22.52;;;;;;;;;;5054538;28;20044;-73
2022/12/11 02:35:38;;;;;;;68.28;22.17;;;;;;;;;;5029153;28;20127;-74
2022/12/11 02:38:14;;;;;;;74.32;22.88;;;;;;;;;;5056650;28;20053;-73
2022/12/11 02:40:42;;;;;;;61.70;21.15;;;;;;;;;;5042450;28;20063;-73
2022/12/11 02:43:10;;;;;;;58.47;20.88;;;;;;;;;;5054653;28;20056;-74
2022/12/11 02:45:36;;;;;;;64.95;20.48;;;;;;;;;;5043267;28;20055;-74
2022/12/11 02:48:04;;;;;;;76.75;20.77;;;;;;;;;;5055146;28;20053;-73
2022/12/11 02:50:31;;;;;;;69.85;21.50;;;;;;;;;;5036296;28;20147;-74
2022/12/11 02:52:57;;;;;;;64.25;20.85;;;;;;;;;;5056284;28;20131;-74
2022/12/11 02:55:26;;;;;;;69.45;21.08;;;;;;;;;;5053744;28;20044;-74
2022/12/11 02:57:54;;;;;;;60.55;20.08;;;;;;;;;;5055079;28;20131;-74
2022/12/11 03:00:21;;;;;;;72.05;21.98;;;;;;;;;;5054054;28;20048;-74
2022/12/11 03:02:47;;;;;;;70.20;20.48;;;;;;;;;;5015997;28;20063;-74
2022/12/11 03:05:14;;;;;;;62.97;19.25;;;;;;;;;;5015049;28;20064;-74
2022/12/11 03:07:41;;;;;;;63.75;19.83;;;;;;;;;;5052621;28;20066;-74
2022/12/11 03:10:09;;;;;;;69.25;19.55;;;;;;;;;;5043104;28;20057;-74
2022/12/11 03:12:39;;;;;;;63.20;19.73;;;;;;;;;;5053761;28;20063;-73
2022/12/11 03:15:08;;;;;;;59.42;20.23;;;;;;;;;;5058016;28;20052;-74
2022/12/11 03:17:47;;;;;;;64.55;19.33;;;;;;;;;;5048025;28;20051;-74
2022/12/11 03:20:20;;;;;;;59.67;19.83;;;;;;;;;;5033855;28;20079;-75
2022/12/11 03:22:49;;;;;;;53.97;18.33;;;;;;;;;;5054678;28;20145;-74
2022/12/11 03:25:18;;;;;;;59.90;18.33;;;;;;;;;;5025589;28;20040;-73
2022/12/11 03:27:48;;;;;;;67.22;20.92;;;;;;;;;;5036816;28;20063;-73
2022/12/11 03:30:16;;;;;;;61.88;20.08;;;;;;;;;;5050837;28;20107;-75
2022/12/11 03:32:50;;;;;;;60.97;20.67;;;;;;;;;;5051281;28;20048;-75
2022/12/11 03:35:19;;;;;;;73.72;21.20;;;;;;;;;;5051422;28;20053;-74
2022/12/11 03:37:47;;;;;;;65.97;20.10;;;;;;;;;;5051567;28;20051;-74
2022/12/11 03:40:15;;;;;;;67.20;19.77;;;;;;;;;;5054076;28;20064;-75
2022/12/11 03:42:43;;;;;;;59.13;19.00;;;;;;;;;;5054963;28;20125;-74
2022/12/11 03:45:10;;;;;;;57.95;19.35;;;;;;;;;;5053278;28;20043;-75
2022/12/11 03:47:37;;;;;;;62.17;19.13;;;;;;;;;;5051860;28;20052;-74
2022/12/11 03:50:05;;;;;;;56.25;17.95;;;;;;;;;;5050298;28;22432;-74
2022/12/11 03:52:31;;;;;;;54.53;18.20;;;;;;;;;;5048380;28;20515;-74
2022/12/11 03:55:01;;;;;;;54.88;18.55;;;;;;;;;;5051814;28;20695;-74
2022/12/11 03:57:29;;;;;;;56.78;17.05;;;;;;;;;;5052697;28;20094;-74
2022/12/11 03:59:56;;;;;;;60.55;18.48;;;;;;;;;;5052426;28;20056;-74
2022/12/11 04:02:22;;;;;;;64.95;19.25;;;;;;;;;;5052748;28;20109;-74
2022/12/11 04:04:48;;;;;;;57.28;18.88;;;;;;;;;;5054690;28;21841;-74
2022/12/11 04:07:14;;;;;;;57.83;19.23;;;;;;;;;;5045467;28;20054;-74
2022/12/11 04:09:40;;;;;;;54.05;17.13;;;;;;;;;;5042127;28;20114;-74
2022/12/11 04:12:06;;;;;;;55.55;19.13;;;;;;;;;;5036299;28;20048;-74
2022/12/11 04:24:14;;;;;;;57.45;17.88;;;;;;;;;;5055567;28;20044;-74
2022/12/11 04:25:33;;;;;;;48.40;16.52;;;;;;;;;;5041308;28;20140;-74
2022/12/11 04:27:59;;;;;;;57.63;18.02;;;;;;;;;;5038143;28;21975;-74
2022/12/11 04:30:26;;;;;;;52.67;17.05;;;;;;;;;;5011577;28;20087;-74
2022/12/11 04:32:52;;;;;;;56.00;17.30;;;;;;;;;;5036917;28;20945;-73
2022/12/11 04:35:19;;;;;;;52.67;17.90;;;;;;;;;;5021763;28;20161;-74
2022/12/11 04:37:45;;;;;;;51.13;17.45;;;;;;;;;;5035860;28;20059;-74
2022/12/11 04:40:12;;;;;;;50.83;17.00;;;;;;;;;;5038882;28;20484;-74
2022/12/11 04:42:38;;;;;;;53.53;18.42;;;;;;;;;;5016328;28;20141;-74
2022/12/11 04:45:05;;;;;;;45.33;16.48;;;;;;;;;;5033884;28;20056;-74
2022/12/11 04:47:31;;;;;;;60.53;19.65;;;;;;;;;;5021683;28;20048;-74
2022/12/11 04:49:57;;;;;;;56.40;18.40;;;;;;;;;;5052876;28;20066;-74
2022/12/11 04:52:23;;;;;;;52.17;17.73;;;;;;;;;;5052971;28;20044;-74
2022/12/11 04:54:50;;;;;;;59.25;19.30;;;;;;;;;;5055339;28;20135;-74
2022/12/11 04:57:16;;;;;;;57.33;18.65;;;;;;;;;;5034088;28;20085;-74
2022/12/11 04:59:42;;;;;;;52.85;18.02;;;;;;;;;;5054735;28;20137;-74
2022/12/11 05:02:08;;;;;;;62.40;19.75;;;;;;;;;;5054703;28;20116;-74
2022/12/11 05:04:34;;;;;;;58.33;18.52;;;;;;;;;;5035227;28;20048;-74
2022/12/11 05:07:01;;;;;;;65.32;19.63;;;;;;;;;;5052513;28;20136;-74
2022/12/11 05:09:28;;;;;;;60.47;19.98;;;;;;;;;;5037343;28;20060;-74
2022/12/11 05:11:54;;;;;;;61.92;20.60;;;;;;;;;;5038525;28;20048;-74
2022/12/11 05:14:20;;;;;;;59.20;19.40;;;;;;;;;;5053328;28;20048;-74
2022/12/11 05:16:46;;;;;;;63.20;19.50;;;;;;;;;;5054690;28;20135;-75
2022/12/11 05:19:12;;;;;;;65.60;19.08;;;;;;;;;;5057099;28;20048;-74
2022/12/11 05:21:38;;;;;;;59.67;19.42;;;;;;;;;;5055164;28;20049;-74
2022/12/11 05:24:05;;;;;;;72.28;20.40;;;;;;;;;;5056846;28;20091;-74
2022/12/11 05:26:32;;;;;;;60.67;19.52;;;;;;;;;;5054602;28;20044;-74
2022/12/11 05:28:58;;;;;;;58.72;18.83;;;;;;;;;;5035716;28;20060;-77
2022/12/11 05:31:25;;;;;;;63.72;20.95;;;;;;;;;;5058293;28;20094;-77
2022/12/11 05:33:51;;;;;;;54.53;18.77;;;;;;;;;;5036335;28;20090;-77
2022/12/11 05:36:21;;;;;;;65.95;20.17;;;;;;;;;;5041364;28;20052;-77
2022/12/11 05:38:47;;;;;;;51.75;17.92;;;;;;;;;;5039137;28;20131;-77
2022/12/11 05:41:14;;;;;;;67.50;22.05;;;;;;;;;;5042097;28;20063;-77
2022/12/11 05:43:41;;;;;;;63.78;19.10;;;;;;;;;;5038657;28;22114;-77
2022/12/11 05:46:12;;;;;;;50.60;17.88;;;;;;;;;;5021045;28;22178;-77
2022/12/11 05:48:38;;;;;;;52.42;17.98;;;;;;;;;;5035956;28;20048;-77
2022/12/11 05:51:05;;;;;;;52.97;17.25;;;;;;;;;;5040622;28;20167;-78
2022/12/11 05:53:32;;;;;;;55.90;19.20;;;;;;;;;;5036441;28;20040;-77
2022/12/11 05:56:02;;;;;;;45.30;17.38;;;;;;;;;;5029783;28;20135;-77
2022/12/11 05:58:28;;;;;;;59.20;18.95;;;;;;;;;;5035411;28;20098;-77
2022/12/11 06:00:54;;;;;;;59.95;19.38;;;;;;;;;;5023330;28;20051;-77
2022/12/11 06:03:20;;;;;;;46.22;18.73;;;;;;;;;;5038392;28;21864;-77
2022/12/11 06:05:47;;;;;;;49.47;18.83;;;;;;;;;;5058627;28;20199;-77
2022/12/11 06:08:13;;;;;;;50.35;18.77;;;;;;;;;;5038171;28;20055;-78
2022/12/11 06:10:44;;;;;;;60.75;19.95;;;;;;;;;;5022301;28;20048;-77
2022/12/11 06:13:10;;;;;;;55.92;20.00;;;;;;;;;;5047372;28;20052;-77
2022/12/11 06:15:36;;;;;;;57.65;20.45;;;;;;;;;;5023323;28;20058;-77
2022/12/11 06:18:02;;;;;;;58.38;20.58;;;;;;;;;;5037500;28;20052;-77
2022/12/11 06:20:30;;;;;;;47.70;18.90;;;;;;;;;;5023219;28;20159;-80
2022/12/11 06:22:56;;;;;;;56.00;20.58;;;;;;;;;;5061642;28;20052;-78
2022/12/11 06:25:23;;;;;;;52.58;19.08;;;;;;;;;;5030573;28;20065;-77
2022/12/11 06:27:49;;;;;;;51.78;19.55;;;;;;;;;;5040504;28;20055;-78
2022/12/11 06:30:15;;;;;;;49.00;19.58;;;;;;;;;;5029266;28;20171;-78
2022/12/11 06:32:42;;;;;;;54.70;18.77;;;;;;;;;;5023785;28;20040;-78
2022/12/11 06:35:08;;;;;;;57.83;20.08;;;;;;;;;;5029595;28;20127;-78
2022/12/11 06:37:35;;;;;;;53.92;19.80;;;;;;;;;;5059983;28;20073;-78
2022/12/11 06:40:02;;;;;;;52.33;19.08;;;;;;;;;;5041626;28;20071;-78
2022/12/11 06:42:31;;;;;;;52.17;19.65;;;;;;;;;;5061955;28;20494;-78
2022/12/11 06:44:58;;;;;;;54.70;20.45;;;;;;;;;;5026355;28;21810;-77
2022/12/11 06:47:25;;;;;;;60.75;20.75;;;;;;;;;;5038691;28;20060;-78
2022/12/11 06:49:52;;;;;;;56.47;19.90;;;;;;;;;;5021198;28;20083;-78
2022/12/11 06:52:18;;;;;;;49.88;19.83;;;;;;;;;;5032258;28;20586;-78
2022/12/11 06:54:44;;;;;;;50.35;19.80;;;;;;;;;;5033270;28;20056;-78
2022/12/11 06:57:11;;;;;;;48.72;19.52;;;;;;;;;;5034319;28;20130;-78
2022/12/11 06:59:37;;;;;;;53.63;20.05;;;;;;;;;;5039164;28;20055;-78
2022/12/11 07:02:03;;;;;;;55.03;20.98;;;;;;;;;;5035409;28;20060;-78
2022/12/11 07:04:29;;;;;;;52.50;21.10;;;;;;;;;;5037966;28;20065;-78
2022/12/11 07:06:56;;;;;;;55.15;21.13;;;;;;;;;;5033715;28;20068;-77
2022/12/11 07:09:22;;;;;;;55.47;21.75;;;;;;;;;;5020259;28;20053;-79
2022/12/11 07:11:52;;;;;;;60.72;21.92;;;;;;;;;;5031610;28;20049;-77
2022/12/11 07:14:18;;;;;;;66.38;21.92;;;;;;;;;;5036854;28;20554;-77
2022/12/11 07:16:44;;;;;;;54.58;20.65;;;;;;;;;;5032511;28;20982;-78
2022/12/11 07:19:10;;;;;;;52.38;20.38;;;;;;;;;;5058281;28;20481;-77
2022/12/11 07:21:36;;;;;;;57.30;20.08;;;;;;;;;;5060024;28;20055;-77
2022/12/11 07:24:02;;;;;;;55.88;21.13;;;;;;;;;;5041477;28;20040;-78
2022/12/11 07:26:29;;;;;;;56.63;19.88;;;;;;;;;;5054418;28;20066;-77
2022/12/11 07:28:58;;;;;;;53.92;19.23;;;;;;;;;;5030194;28;20076;-77
2022/12/11 07:31:25;;;;;;;53.03;19.05;;;;;;;;;;5041058;28;20652;-78
2022/12/11 07:33:59;;;;;;;47.45;18.23;;;;;;;;;;5027241;28;20051;-79
2022/12/11 07:36:26;;;;;;;57.03;20.48;;;;;;;;;;5038596;28;20055;-77
2022/12/11 07:38:52;;;;;;;49.58;17.60;;;;;;;;;;5038081;28;20049;-78
2022/12/11 07:41:19;;;;;;;60.88;20.55;;;;;;;;;;5040075;28;20051;-80
2022/12/11 07:43:45;;;;;;;58.63;18.33;;;;;;;;;;5034750;28;20265;-78
2022/12/11 07:46:12;;;;;;;57.63;18.48;;;;;;;;;;5032886;28;20187;-77
2022/12/11 07:48:39;;;;;;;70.68;23.35;;;;;;;;;;5036325;28;20068;-78
2022/12/11 07:51:08;;;;;;;50.63;18.30;;;;;;;;;;5032411;28;20048;-77
2022/12/11 07:53:35;;;;;;;55.17;19.58;;;;;;;;;;5036389;28;20058;-78
2022/12/11 07:56:01;;;;;;;54.65;20.08;;;;;;;;;;5016228;28;20072;-77
2022/12/11 07:58:28;;;;;;;46.15;17.83;;;;;;;;;;5037744;28;20492;-78
2022/12/11 08:00:54;;;;;;;45.38;17.73;;;;;;;;;;5042141;28;20193;-77
2022/12/11 08:03:20;;;;;;;54.03;18.60;;;;;;;;;;5039250;28;20052;-77
2022/12/11 08:05:50;;;;;;;54.45;19.42;;;;;;;;;;5019129;28;20048;-78
2022/12/11 08:08:16;;;;;;;56.95;20.80;;;;;;;;;;5037528;28;20098;-77
2022/12/11 08:10:42;;;;;;;59.55;19.92;;;;;;;;;;5026816;28;20043;-78
2022/12/11 08:13:08;;;;;;;52.83;18.88;;;;;;;;;;5036085;28;20047;-79
2022/12/11 08:15:35;;;;;;;59.60;20.23;;;;;;;;;;5018152;28;20054;-78
2022/12/11 08:18:01;;;;;;;61.67;20.25;;;;;;;;;;5034165;28;20140;-78
2022/12/11 08:20:27;;;;;;;53.95;20.95;;;;;;;;;;5036113;28;20144;-78
2022/12/11 08:22:53;;;;;;;57.70;20.55;;;;;;;;;;5038622;28;20044;-77
2022/12/11 08:25:19;;;;;;;55.75;18.65;;;;;;;;;;5021475;28;20045;-79
2022/12/11 08:27:45;;;;;;;57.72;20.58;;;;;;;;;;5040310;28;20178;-78
2022/12/11 08:30:11;;;;;;;52.53;18.67;;;;;;;;;;5041124;28;20052;-78
2022/12/11 08:32:37;;;;;;;50.83;19.38;;;;;;;;;;5056942;28;20439;-79
2022/12/11 08:35:03;;;;;;;48.33;18.58;;;;;;;;;;5031570;28;20048;-79
2022/12/11 08:37:30;;;;;;;48.35;18.42;;;;;;;;;;5033446;28;20125;-79
2022/12/11 08:39:56;;;;;;;55.33;19.60;;;;;;;;;;5034165;28;20048;-80
2022/12/11 08:42:22;;;;;;;41.63;16.20;;;;;;;;;;5027741;28;20056;-79
2022/12/11 08:44:48;;;;;;;46.20;17.23;;;;;;;;;;5028094;28;20044;-79
2022/12/11 08:47:14;;;;;;;44.50;16.67;;;;;;;;;;5035034;28;20151;-79
2022/12/11 08:49:40;;;;;;;49.95;19.23;;;;;;;;;;5042533;28;20104;-80
2022/12/11 08:52:06;;;;;;;36.83;15.23;;;;;;;;;;5038934;28;20140;-80
2022/12/11 08:54:32;;;;;;;46.05;17.58;;;;;;;;;;5036849;28;20087;-80
2022/12/11 08:56:58;;;;;;;47.38;17.33;;;;;;;;;;5038090;28;20504;-79
2022/12/11 08:59:25;;;;;;;42.50;16.05;;;;;;;;;;5031646;28;20181;-80
2022/12/11 09:01:51;;;;;;;43.33;17.48;;;;;;;;;;5040447;28;20098;-79
2022/12/11 09:04:17;;;;;;;46.65;17.67;;;;;;;;;;5035122;28;20060;-80
2022/12/11 09:06:43;;;;;;;42.55;16.38;;;;;;;;;;5022597;28;20257;-79
2022/12/11 09:09:09;;;;;;;46.25;17.35;;;;;;;;;;5036518;28;20127;-80
2022/12/11 09:11:36;;;;;;;42.45;17.15;;;;;;;;;;5027608;28;20048;-79
2022/12/11 09:14:03;;;;;;;57.67;17.85;;;;;;;;;;5021957;28;20049;-79
2022/12/11 09:16:29;;;;;;;47.45;16.90;;;;;;;;;;5015096;28;20059;-79
2022/12/11 09:18:56;;;;;;;49.13;18.75;;;;;;;;;;5038143;28;20155;-79
2022/12/11 09:21:23;;;;;;;46.50;16.40;;;;;;;;;;5033033;28;20070;-79
2022/12/11 09:23:52;;;;;;;49.05;17.85;;;;;;;;;;5038211;28;20078;-80
2022/12/11 09:26:18;;;;;;;49.40;18.45;;;;;;;;;;5032014;28;21046;-79
2022/12/11 09:28:45;;;;;;;54.45;18.58;;;;;;;;;;5040416;28;20044;-80
2022/12/11 09:31:16;;;;;;;47.92;18.02;;;;;;;;;;5050172;28;20048;-79
2022/12/11 09:33:43;;;;;;;53.13;17.95;;;;;;;;;;5053751;28;20051;-80
2022/12/11 09:36:09;;;;;;;50.50;17.17;;;;;;;;;;5049971;28;20101;-80
2022/12/11 09:38:35;;;;;;;43.63;17.00;;;;;;;;;;5051954;28;20602;-79
2022/12/11 09:41:02;;;;;;;48.20;16.63;;;;;;;;;;5042651;28;20043;-80
2022/12/11 09:43:36;;;;;;;54.10;17.33;;;;;;;;;;5051224;28;20048;-81
2022/12/11 09:46:03;;;;;;;49.42;17.65;;;;;;;;;;5050388;28;20101;-80
2022/12/11 09:48:32;;;;;;;51.25;19.88;;;;;;;;;;5035239;28;20051;-80
2022/12/11 09:51:01;;;;;;;48.92;17.92;;;;;;;;;;5052030;28;20040;-80
2022/12/11 09:53:34;;;;;;;44.95;16.95;;;;;;;;;;5030004;28;20052;-79
2022/12/11 09:56:03;;;;;;;52.55;19.10;;;;;;;;;;5049727;28;20049;-79
2022/12/11 09:58:32;;;;;;;55.10;17.92;;;;;;;;;;5048237;28;20051;-79
2022/12/11 10:01:05;;;;;;;47.78;17.38;;;;;;;;;;5048586;28;20515;-79
2022/12/11 10:03:34;;;;;;;53.75;19.38;;;;;;;;;;5049704;28;20084;-79
2022/12/11 10:06:12;;;;;;;52.53;18.88;;;;;;;;;;5048282;28;20052;-79
2022/12/11 10:08:38;;;;;;;53.67;18.65;;;;;;;;;;5050408;28;20460;-79
2022/12/11 10:11:05;;;;;;;49.53;19.33;;;;;;;;;;5045854;28;20089;-80
2022/12/11 10:13:39;;;;;;;46.88;17.60;;;;;;;;;;5047444;28;20058;-78
2022/12/11 10:16:11;;;;;;;46.42;18.92;;;;;;;;;;5046805;28;20097;-80
2022/12/11 10:18:38;;;;;;;55.45;19.10;;;;;;;;;;5050311;28;20048;-81
2022/12/11 10:21:04;;;;;;;45.55;17.13;;;;;;;;;;5042696;28;20068;-80
2022/12/11 10:23:34;;;;;;;56.53;20.20;;;;;;;;;;5043948;28;20040;-78
2022/12/11 10:26:12;;;;;;;49.05;17.48;;;;;;;;;;5026006;28;20986;-80
2022/12/11 10:28:38;;;;;;;45.78;17.85;;;;;;;;;;5057941;28;20408;-81
2022/12/11 10:31:13;;;;;;;54.75;20.17;;;;;;;;;;5025243;28;20048;-81
2022/12/11 10:33:54;;;;;;;53.83;18.58;;;;;;;;;;5045690;28;20147;-82
2022/12/11 10:36:22;;;;;;;53.47;19.67;;;;;;;;;;5048034;28;20065;-80
2022/12/11 10:38:49;;;;;;;50.72;18.73;;;;;;;;;;5044294;28;20052;-80
2022/12/11 10:41:20;;;;;;;56.55;19.92;;;;;;;;;;5040856;28;20048;-79
2022/12/11 10:43:50;;;;;;;52.90;19.63;;;;;;;;;;5038136;28;20090;-80
2022/12/11 10:46:17;;;;;;;56.17;18.05;;;;;;;;;;5042071;28;20083;-79
2022/12/11 10:48:46;;;;;;;55.28;19.40;;;;;;;;;;5042549;28;20110;-79
2022/12/11 10:51:14;;;;;;;57.10;20.48;;;;;;;;;;5040085;28;20045;-80
2022/12/11 10:53:42;;;;;;;55.53;19.17;;;;;;;;;;5042825;28;20131;-79
2022/12/11 10:56:08;;;;;;;51.85;19.75;;;;;;;;;;5039227;28;20048;-79
2022/12/11 10:58:38;;;;;;;55.05;22.08;;;;;;;;;;5051446;28;20491;-79
2022/12/11 11:01:13;;;;;;;53.83;19.83;;;;;;;;;;5056596;28;20059;-80
2022/12/11 11:03:54;;;;;;;48.38;18.35;;;;;;;;;;5031251;28;21021;-78
2022/12/11 11:06:21;;;;;;;57.67;20.65;;;;;;;;;;5028922;28;20057;-80
2022/12/11 11:08:48;;;;;;;54.20;20.00;;;;;;;;;;5044131;28;20057;-79
2022/12/11 11:11:31;;;;;;;57.30;20.98;;;;;;;;;;5038763;28;20055;-78
2022/12/11 11:14:14;;;;;;;58.75;19.63;;;;;;;;;;5024905;28;20084;-79
2022/12/11 11:16:42;;;;;;;53.63;18.80;;;;;;;;;;5036261;28;21774;-80
2022/12/11 11:19:16;;;;;;;52.08;19.67;;;;;;;;;;5046515;28;20069;-82
2022/12/11 11:21:47;;;;;;;53.83;20.48;;;;;;;;;;5044558;28;20544;-74
2022/12/11 11:24:26;;;;;;;54.08;21.85;;;;;;;;;;5056392;28;20052;-75
2022/12/11 11:26:52;;;;;;;53.35;20.90;;;;;;;;;;5046813;28;20052;-75
2022/12/11 11:29:37;;;;;;;65.10;20.77;;;;;;;;;;5034135;28;20048;-75
2022/12/11 11:32:03;;;;;;;;;;;;;;;;;;5037201;28;21863;-81
2022/12/11 11:34:37;;;;;;;52.22;19.65;;;;;;;;;;5058610;28;19959;-76
2022/12/11 11:37:04;;;;;;;56.53;21.70;;;;;;;;;;5050526;28;20036;-75
2022/12/11 11:39:37;;;;;;;51.88;20.65;;;;;;;;;;5054294;28;20133;-74
2022/12/11 11:42:09;;;;;;;55.15;20.98;;;;;;;;;;5034816;28;20056;-74
2022/12/11 11:44:51;;;;;;;59.70;21.73;;;;;;;;;;5020262;28;20089;-74
2022/12/11 11:47:22;;;;;;;53.25;20.27;;;;;;;;;;5053050;28;20097;-76
2022/12/11 11:49:57;;;;;;;56.80;22.30;;;;;;;;;;5032213;28;20096;-77
2022/12/11 11:52:32;;;;;;;58.17;20.58;;;;;;;;;;5016050;28;20056;-76
2022/12/11 11:54:59;;;;;;;57.50;20.27;;;;;;;;;;5056878;28;20078;-76
2022/12/11 11:57:28;;;;;;;48.90;20.73;;;;;;;;;;5039464;28;20141;-74
2022/12/11 12:00:08;;;;;;;56.75;21.45;;;;;;;;;;5022312;28;20172;-74
2022/12/11 12:02:34;;;;;;;59.15;21.33;;;;;;;;;;5038996;28;20060;-81
2022/12/11 12:05:02;;;;;;;58.40;21.10;;;;;;;;;;5037438;28;20051;-81
2022/12/11 12:07:43;;;;;;;48.72;20.23;;;;;;;;;;5043050;28;20064;-82
2022/12/11 12:10:16;;;;;;;61.72;23.33;;;;;;;;;;5025744;28;20059;-81
2022/12/11 12:13:04;;;;;;;59.10;22.63;;;;;;;;;;5047321;28;20055;-81
2022/12/11 12:15:35;;;;;;;54.50;20.17;;;;;;;;;;5041984;28;20058;-81
2022/12/11 12:18:04;;;;;;;55.30;21.08;;;;;;;;;;5059378;28;20139;-81
2022/12/11 12:20:42;;;;;;;63.20;21.48;;;;;;;;;;5032620;28;20110;-80
2022/12/11 12:23:27;;;;;;;61.35;21.38;;;;;;;;;;5047220;28;20416;-81
2022/12/11 12:25:53;;;;;;;62.65;21.85;;;;;;;;;;5041134;28;20064;-79
2022/12/11 12:28:35;;;;;;;55.47;22.27;;;;;;;;;;5044637;28;20181;-83
2022/12/11 12:31:24;;;;;;;53.40;20.20;;;;;;;;;;5022524;28;20052;-77
2022/12/11 12:34:03;;;;;;;60.95;24.67;;;;;;;;;;5031395;28;20133;-77
2022/12/11 12:36:48;;;;;;;53.85;21.40;;;;;;;;;;5039240;28;20048;-77
2022/12/11 12:39:23;;;;;;;58.80;21.48;;;;;;;;;;5039256;28;20051;-77
2022/12/11 12:41:56;;;;;;;51.15;20.52;;;;;;;;;;5044194;28;20918;-77
2022/12/11 12:44:23;;;;;;;57.10;21.85;;;;;;;;;;5043000;28;20056;-77
2022/12/11 12:46:52;;;;;;;59.30;22.20;;;;;;;;;;5061081;28;20082;-77
2022/12/11 12:49:41;;;;;;;57.50;22.95;;;;;;;;;;5048284;28;20067;-77
2022/12/11 12:52:26;;;;;;;60.40;21.92;;;;;;;;;;5036992;28;20519;-77
2022/12/11 12:55:14;;;;;;;53.55;21.77;;;;;;;;;;5034661;28;20090;-77
2022/12/11 12:57:43;;;;;;;55.58;21.35;;;;;;;;;;5048008;28;20850;-78
2022/12/11 13:00:13;;;;;;;56.42;22.05;;;;;;;;;;5040805;28;20044;-77
2022/12/11 13:02:49;;;;;;;55.92;21.25;;;;;;;;;;5035400;28;20056;-71
2022/12/11 13:05:23;;;;;;;52.45;21.65;;;;;;;;;;5040074;28;20103;-71
2022/12/11 13:07:57;;;;;;;53.40;22.10;;;;;;;;;;5039176;28;20117;-70
2022/12/11 13:10:25;;;;;;;56.60;23.02;;;;;;;;;;5063991;28;20166;-70
2022/12/11 13:12:51;;;;;;;58.20;21.13;;;;;;;;;;5063024;28;20044;-70
2022/12/11 13:15:26;;;;;;;57.10;23.05;;;;;;;;;;5066983;28;20133;-70
2022/12/11 13:17:53;;;;;;;58.67;21.90;;;;;;;;;;5060883;28;20126;-70
2022/12/11 13:20:21;;;;;;;60.13;23.55;;;;;;;;;;5022041;28;20041;-71
2022/12/11 13:23:05;;;;;;;65.32;23.73;;;;;;;;;;5035165;28;20056;-71
2022/12/11 13:25:31;;;;;;;;;;;;;;;;;;5037527;28;20110;-71
2022/12/11 13:28:04;;;;;;;58.50;21.75;;;;;;;;;;5032604;28;19951;-71
2022/12/11 13:30:31;;;;;;;55.47;22.98;;;;;;;;;;5051927;28;20055;-71
2022/12/11 13:33:05;;;;;;;57.10;23.67;;;;;;;;;;5037641;28;20133;-71
2022/12/11 13:35:32;;;;;;;59.83;24.13;;;;;;;;;;5053115;28;20053;-71
2022/12/11 13:38:02;;;;;;;53.58;23.90;;;;;;;;;;5033154;28;20051;-71
2022/12/11 13:40:33;;;;;;;59.65;24.52;;;;;;;;;;5036282;28;20534;-69
2022/12/11 13:43:00;;;;;;;57.20;21.83;;;;;;;;;;5035434;28;20071;-70
2022/12/11 13:45:27;;;;;;;52.83;21.67;;;;;;;;;;5017864;28;20485;-69
2022/12/11 13:47:54;;;;;;;57.05;21.73;;;;;;;;;;5053898;28;20091;-69
2022/12/11 13:50:23;;;;;;;58.72;24.98;;;;;;;;;;5033301;28;20083;-71
2022/12/11 13:52:57;;;;;;;59.22;23.00;;;;;;;;;;5035314;28;20062;-71
2022/12/11 13:55:25;;;;;;;65.30;24.35;;;;;;;;;;5035589;28;20048;-71
2022/12/11 13:57:51;;;;;;;60.85;22.48;;;;;;;;;;5034536;28;20079;-70
2022/12/11 14:00:25;;;;;;;55.33;24.30;;;;;;;;;;5031319;28;20083;-71
2022/12/11 14:02:53;;;;;;;57.55;23.75;;;;;;;;;;5053320;28;20052;-70
2022/12/11 14:05:19;;;;;;;60.53;23.50;;;;;;;;;;5044422;28;20673;-70
2022/12/11 14:07:50;;;;;;;59.92;22.08;;;;;;;;;;5044022;28;20044;-70
2022/12/11 14:10:16;;;;;;;57.00;22.50;;;;;;;;;;5035831;28;20991;-70
2022/12/11 14:12:53;;;;;;;56.17;22.23;;;;;;;;;;5053619;28;20080;-70
2022/12/11 14:15:19;;;;;;;59.45;22.98;;;;;;;;;;5032338;28;20067;-71
2022/12/11 14:17:45;;;;;;;60.97;24.00;;;;;;;;;;5031626;28;20062;-71
2022/12/11 14:20:41;;;;;;;54.05;22.27;;;;;;;;;;5036763;28;20139;-71
2022/12/11 14:23:21;;;;;;;62.97;24.20;;;;;;;;;;5036274;28;20066;-70
2022/12/11 14:25:55;;;;;;;57.47;23.15;;;;;;;;;;5054920;28;20048;-70
2022/12/11 14:28:22;;;;;;;;;;;;;;;;;;5043581;28;20062;-71
2022/12/11 14:30:49;;;;;;;57.95;23.00;;;;;;;;;;5055010;28;19956;-70
2022/12/11 14:33:17;;;;;;;59.05;21.55;;;;;;;;;;5059392;28;20068;-70
2022/12/11 14:35:44;;;;;;;57.05;24.52;;;;;;;;;;5057162;28;20133;-70
2022/12/11 14:38:16;;;;;;;63.20;22.88;;;;;;;;;;5038390;28;20133;-71